sensor_id;sensor_type;location;lat;lon;timestamp;P1;durP1;ratioP1;P2;durP2;ratioP2
3433;SDS011;1730;41.932;25.548;2023-05-10T00:00:50;7.83;;;7.20;;
3433;SDS011;1730;41.932;25.548;2023-05-10T00:03:16;8.97;;;7.30;;
3433;SDS011;1730;41.932;25.548;2023-05-10T00:05:42;9.20;;;7.33;;
3433;SDS011;1730;41.932;25.548;2023-05-10T00:08:07;11.57;;;7.40;;
3433;SDS011;1730;41.932;25.548;2023-05-10T00:10:33;11.23;;;8.33;;
3433;SDS011;1730;41.932;25.548;2023-05-10T00:12:58;8.00;;;7.20;;
3433;SDS011;1730;41.932;25.548;2023-05-10T00:15:24;8.17;;;7.50;;
3433;SDS011;1730;41.932;25.548;2023-05-10T00:17:49;11.43;;;9.30;;
3433;SDS011;1730;41.932;25.548;2023-05-10T00:20:15;11.93;;;8.53;;
3433;SDS011;1730;41.932;25.548;2023-05-10T00:22:40;13.03;;;8.40;;
3433;SDS011;1730;41.932;25.548;2023-05-10T00:25:06;14.50;;;8.53;;
3433;SDS011;1730;41.932;25.548;2023-05-10T00:27:33;9.63;;;7.43;;
3433;SDS011;1730;41.932;25.548;2023-05-10T00:29:58;10.80;;;9.03;;
3433;SDS011;1730;41.932;25.548;2023-05-10T00:32:24;14.13;;;8.93;;
3433;SDS011;1730;41.932;25.548;2023-05-10T00:34:49;9.00;;;8.20;;
3433;SDS011;1730;41.932;25.548;2023-05-10T00:37:15;15.10;;;8.60;;
3433;SDS011;1730;41.932;25.548;2023-05-10T00:39:41;8.60;;;7.80;;
3433;SDS011;1730;41.932;25.548;2023-05-10T00:42:06;15.13;;;8.87;;
3433;SDS011;1730;41.932;25.548;2023-05-10T00:44:32;11.17;;;9.00;;
3433;SDS011;1730;41.932;25.548;2023-05-10T00:46:57;12.37;;;10.07;;
3433;SDS011;1730;41.932;25.548;2023-05-10T00:49:24;10.13;;;9.17;;
3433;SDS011;1730;41.932;25.548;2023-05-10T00:51:50;13.50;;;9.00;;
3433;SDS011;1730;41.932;25.548;2023-05-10T00:54:16;13.97;;;9.47;;
3433;SDS011;1730;41.932;25.548;2023-05-10T00:56:41;11.03;;;9.70;;
3433;SDS011;1730;41.932;25.548;2023-05-10T00:59:08;9.77;;;8.57;;
3433;SDS011;1730;41.932;25.548;2023-05-10T01:01:34;15.20;;;9.70;;
3433;SDS011;1730;41.932;25.548;2023-05-10T01:04:01;11.63;;;10.17;;
3433;SDS011;1730;41.932;25.548;2023-05-10T01:06:28;13.53;;;9.17;;
3433;SDS011;1730;41.932;25.548;2023-05-10T01:08:53;12.83;;;8.90;;
3433;SDS011;1730;41.932;25.548;2023-05-10T01:11:19;13.57;;;9.23;;
3433;SDS011;1730;41.932;25.548;2023-05-10T01:13:47;15.80;;;9.33;;
3433;SDS011;1730;41.932;25.548;2023-05-10T01:16:20;11.80;;;9.90;;
3433;SDS011;1730;41.932;25.548;2023-05-10T01:18:46;20.00;;;9.47;;
3433;SDS011;1730;41.932;25.548;2023-05-10T01:21:22;13.63;;;9.40;;
3433;SDS011;1730;41.932;25.548;2023-05-10T01:26:45;11.70;;;9.07;;
3433;SDS011;1730;41.932;25.548;2023-05-10T01:35:16;11.50;;;9.97;;
3433;SDS011;1730;41.932;25.548;2023-05-10T01:43:42;12.93;;;9.80;;
3433;SDS011;1730;41.932;25.548;2023-05-10T01:46:13;15.17;;;11.03;;
3433;SDS011;1730;41.932;25.548;2023-05-10T01:48:51;10.57;;;9.53;;
3433;SDS011;1730;41.932;25.548;2023-05-10T01:51:24;15.03;;;9.63;;
3433;SDS011;1730;41.932;25.548;2023-05-10T01:53:54;11.40;;;10.27;;
3433;SDS011;1730;41.932;25.548;2023-05-10T01:56:25;14.43;;;10.10;;
3433;SDS011;1730;41.932;25.548;2023-05-10T01:58:52;10.40;;;9.50;;
3433;SDS011;1730;41.932;25.548;2023-05-10T02:01:20;20.17;;;10.70;;
3433;SDS011;1730;41.932;25.548;2023-05-10T02:03:47;16.80;;;10.90;;
3433;SDS011;1730;41.932;25.548;2023-05-10T02:06:15;15.37;;;10.73;;
3433;SDS011;1730;41.932;25.548;2023-05-10T02:08:43;21.80;;;11.27;;
3433;SDS011;1730;41.932;25.548;2023-05-10T02:11:11;12.47;;;9.93;;
3433;SDS011;1730;41.932;25.548;2023-05-10T02:13:38;14.67;;;10.47;;
3433;SDS011;1730;41.932;25.548;2023-05-10T02:16:04;18.87;;;11.93;;
3433;SDS011;1730;41.932;25.548;2023-05-10T02:18:30;18.70;;;11.63;;
3433;SDS011;1730;41.932;25.548;2023-05-10T02:20:58;12.67;;;11.40;;
3433;SDS011;1730;41.932;25.548;2023-05-10T02:23:25;14.47;;;10.87;;
3433;SDS011;1730;41.932;25.548;2023-05-10T02:25:51;14.87;;;10.60;;
3433;SDS011;1730;41.932;25.548;2023-05-10T02:28:19;19.17;;;11.07;;
3433;SDS011;1730;41.932;25.548;2023-05-10T02:30:47;13.90;;;12.10;;
3433;SDS011;1730;41.932;25.548;2023-05-10T02:33:13;12.70;;;11.40;;
3433;SDS011;1730;41.932;25.548;2023-05-10T02:35:39;19.60;;;10.83;;
3433;SDS011;1730;41.932;25.548;2023-05-10T02:38:06;11.30;;;10.10;;
3433;SDS011;1730;41.932;25.548;2023-05-10T02:40:33;12.20;;;10.40;;
3433;SDS011;1730;41.932;25.548;2023-05-10T02:43:01;10.80;;;9.70;;
3433;SDS011;1730;41.932;25.548;2023-05-10T02:45:30;17.70;;;11.17;;
3433;SDS011;1730;41.932;25.548;2023-05-10T02:47:57;11.10;;;10.03;;
3433;SDS011;1730;41.932;25.548;2023-05-10T02:50:25;11.83;;;10.70;;
3433;SDS011;1730;41.932;25.548;2023-05-10T02:52:54;21.43;;;12.03;;
3433;SDS011;1730;41.932;25.548;2023-05-10T02:55:28;17.00;;;11.50;;
3433;SDS011;1730;41.932;25.548;2023-05-10T02:58:01;18.33;;;11.63;;
3433;SDS011;1730;41.932;25.548;2023-05-10T03:00:28;15.57;;;12.00;;
3433;SDS011;1730;41.932;25.548;2023-05-10T03:02:54;19.17;;;11.97;;
3433;SDS011;1730;41.932;25.548;2023-05-10T03:05:21;13.40;;;12.00;;
3433;SDS011;1730;41.932;25.548;2023-05-10T03:07:48;15.07;;;10.73;;
3433;SDS011;1730;41.932;25.548;2023-05-10T03:10:13;17.80;;;11.90;;
3433;SDS011;1730;41.932;25.548;2023-05-10T03:15:47;16.43;;;10.87;;
3433;SDS011;1730;41.932;25.548;2023-05-10T03:18:26;16.23;;;11.00;;
3433;SDS011;1730;41.932;25.548;2023-05-10T03:20:59;14.60;;;10.50;;
3433;SDS011;1730;41.932;25.548;2023-05-10T03:23:46;13.80;;;10.83;;
3433;SDS011;1730;41.932;25.548;2023-05-10T03:26:23;13.60;;;10.23;;
3433;SDS011;1730;41.932;25.548;2023-05-10T03:28:51;13.50;;;10.87;;
3433;SDS011;1730;41.932;25.548;2023-05-10T03:31:18;10.50;;;9.50;;
3433;SDS011;1730;41.932;25.548;2023-05-10T03:33:50;12.63;;;11.30;;
3433;SDS011;1730;41.932;25.548;2023-05-10T03:36:17;12.00;;;10.80;;
3433;SDS011;1730;41.932;25.548;2023-05-10T03:38:43;12.53;;;10.60;;
3433;SDS011;1730;41.932;25.548;2023-05-10T03:41:08;12.30;;;9.67;;
3433;SDS011;1730;41.932;25.548;2023-05-10T03:43:34;11.37;;;9.67;;
3433;SDS011;1730;41.932;25.548;2023-05-10T03:46:01;12.70;;;10.03;;
3433;SDS011;1730;41.932;25.548;2023-05-10T03:48:27;10.77;;;9.70;;
3433;SDS011;1730;41.932;25.548;2023-05-10T03:50:53;11.70;;;9.90;;
3433;SDS011;1730;41.932;25.548;2023-05-10T03:53:18;13.83;;;10.00;;
3433;SDS011;1730;41.932;25.548;2023-05-10T03:55:44;12.10;;;10.70;;
3433;SDS011;1730;41.932;25.548;2023-05-10T03:58:13;11.50;;;10.07;;
3433;SDS011;1730;41.932;25.548;2023-05-10T04:00:38;11.63;;;10.43;;
3433;SDS011;1730;41.932;25.548;2023-05-10T04:03:08;11.90;;;10.73;;
3433;SDS011;1730;41.932;25.548;2023-05-10T04:05:34;25.20;;;10.50;;
3433;SDS011;1730;41.932;25.548;2023-05-10T04:08:00;11.90;;;9.73;;
3433;SDS011;1730;41.932;25.548;2023-05-10T04:10:25;10.40;;;8.90;;
3433;SDS011;1730;41.932;25.548;2023-05-10T04:12:51;12.47;;;8.30;;
3433;SDS011;1730;41.932;25.548;2023-05-10T04:15:17;10.17;;;9.13;;
3433;SDS011;1730;41.932;25.548;2023-05-10T04:17:43;10.37;;;9.30;;
3433;SDS011;1730;41.932;25.548;2023-05-10T04:20:08;14.60;;;9.10;;
3433;SDS011;1730;41.932;25.548;2023-05-10T04:22:34;14.03;;;8.87;;
3433;SDS011;1730;41.932;25.548;2023-05-10T04:25:00;9.67;;;8.77;;
3433;SDS011;1730;41.932;25.548;2023-05-10T04:27:25;13.70;;;8.20;;
3433;SDS011;1730;41.932;25.548;2023-05-10T04:29:51;9.30;;;8.40;;
3433;SDS011;1730;41.932;25.548;2023-05-10T04:32:17;15.03;;;8.53;;
3433;SDS011;1730;41.932;25.548;2023-05-10T04:34:43;9.73;;;8.83;;
3433;SDS011;1730;41.932;25.548;2023-05-10T04:37:09;12.80;;;8.30;;
3433;SDS011;1730;41.932;25.548;2023-05-10T04:39:35;10.53;;;8.40;;
3433;SDS011;1730;41.932;25.548;2023-05-10T04:42:02;9.10;;;8.20;;
3433;SDS011;1730;41.932;25.548;2023-05-10T04:44:28;13.90;;;8.03;;
3433;SDS011;1730;41.932;25.548;2023-05-10T04:46:54;10.67;;;8.00;;
3433;SDS011;1730;41.932;25.548;2023-05-10T04:49:20;15.60;;;8.47;;
3433;SDS011;1730;41.932;25.548;2023-05-10T04:51:47;9.00;;;8.10;;
3433;SDS011;1730;41.932;25.548;2023-05-10T04:54:13;14.03;;;8.97;;
3433;SDS011;1730;41.932;25.548;2023-05-10T04:56:38;9.53;;;8.10;;
3433;SDS011;1730;41.932;25.548;2023-05-10T04:59:04;13.77;;;8.60;;
3433;SDS011;1730;41.932;25.548;2023-05-10T05:01:29;8.20;;;7.50;;
3433;SDS011;1730;41.932;25.548;2023-05-10T05:03:55;7.57;;;6.77;;
3433;SDS011;1730;41.932;25.548;2023-05-10T05:06:20;7.63;;;7.07;;
3433;SDS011;1730;41.932;25.548;2023-05-10T05:08:46;11.43;;;7.50;;
3433;SDS011;1730;41.932;25.548;2023-05-10T05:11:12;8.90;;;5.67;;
3433;SDS011;1730;41.932;25.548;2023-05-10T05:13:37;8.73;;;6.60;;
3433;SDS011;1730;41.932;25.548;2023-05-10T05:16:04;10.03;;;6.60;;
3433;SDS011;1730;41.932;25.548;2023-05-10T05:18:30;9.87;;;7.33;;
3433;SDS011;1730;41.932;25.548;2023-05-10T05:20:56;9.77;;;6.37;;
3433;SDS011;1730;41.932;25.548;2023-05-10T05:23:21;7.20;;;6.50;;
3433;SDS011;1730;41.932;25.548;2023-05-10T05:25:50;11.70;;;7.73;;
3433;SDS011;1730;41.932;25.548;2023-05-10T05:28:17;14.90;;;6.97;;
3433;SDS011;1730;41.932;25.548;2023-05-10T05:30:43;8.27;;;7.40;;
3433;SDS011;1730;41.932;25.548;2023-05-10T05:33:08;9.57;;;8.20;;
3433;SDS011;1730;41.932;25.548;2023-05-10T05:35:34;9.57;;;7.57;;
3433;SDS011;1730;41.932;25.548;2023-05-10T05:37:59;9.00;;;7.27;;
3433;SDS011;1730;41.932;25.548;2023-05-10T05:40:25;7.67;;;6.70;;
3433;SDS011;1730;41.932;25.548;2023-05-10T05:42:50;8.57;;;6.20;;
3433;SDS011;1730;41.932;25.548;2023-05-10T05:45:16;13.90;;;7.27;;
3433;SDS011;1730;41.932;25.548;2023-05-10T05:47:42;7.30;;;6.00;;
3433;SDS011;1730;41.932;25.548;2023-05-10T05:50:08;7.20;;;6.60;;
3433;SDS011;1730;41.932;25.548;2023-05-10T05:52:33;8.77;;;6.17;;
3433;SDS011;1730;41.932;25.548;2023-05-10T05:54:59;7.00;;;6.30;;
3433;SDS011;1730;41.932;25.548;2023-05-10T05:57:25;7.00;;;6.30;;
3433;SDS011;1730;41.932;25.548;2023-05-10T05:59:52;7.90;;;6.97;;
3433;SDS011;1730;41.932;25.548;2023-05-10T06:02:17;8.43;;;6.27;;
3433;SDS011;1730;41.932;25.548;2023-05-10T06:04:43;8.27;;;6.40;;
3433;SDS011;1730;41.932;25.548;2023-05-10T06:07:08;10.43;;;6.37;;
3433;SDS011;1730;41.932;25.548;2023-05-10T06:09:34;11.03;;;7.10;;
3433;SDS011;1730;41.932;25.548;2023-05-10T06:11:59;8.30;;;6.30;;
3433;SDS011;1730;41.932;25.548;2023-05-10T06:14:25;7.97;;;6.77;;
3433;SDS011;1730;41.932;25.548;2023-05-10T06:16:50;8.97;;;7.10;;
3433;SDS011;1730;41.932;25.548;2023-05-10T06:19:16;10.73;;;5.90;;
3433;SDS011;1730;41.932;25.548;2023-05-10T06:21:41;8.37;;;7.33;;
3433;SDS011;1730;41.932;25.548;2023-05-10T06:24:07;12.73;;;5.80;;
3433;SDS011;1730;41.932;25.548;2023-05-10T06:26:33;10.77;;;6.80;;
3433;SDS011;1730;41.932;25.548;2023-05-10T06:28:58;7.40;;;6.20;;
3433;SDS011;1730;41.932;25.548;2023-05-10T06:31:24;7.10;;;5.90;;
3433;SDS011;1730;41.932;25.548;2023-05-10T06:33:49;9.60;;;6.90;;
3433;SDS011;1730;41.932;25.548;2023-05-10T06:36:15;6.40;;;5.90;;
3433;SDS011;1730;41.932;25.548;2023-05-10T06:38:40;18.07;;;5.17;;
3433;SDS011;1730;41.932;25.548;2023-05-10T06:41:06;7.13;;;5.40;;
3433;SDS011;1730;41.932;25.548;2023-05-10T06:43:31;7.07;;;5.70;;
3433;SDS011;1730;41.932;25.548;2023-05-10T06:45:57;14.63;;;6.57;;
3433;SDS011;1730;41.932;25.548;2023-05-10T06:48:22;6.77;;;5.23;;
3433;SDS011;1730;41.932;25.548;2023-05-10T06:50:48;5.67;;;5.13;;
3433;SDS011;1730;41.932;25.548;2023-05-10T06:53:14;6.07;;;5.37;;
3433;SDS011;1730;41.932;25.548;2023-05-10T06:55:40;6.37;;;5.03;;
3433;SDS011;1730;41.932;25.548;2023-05-10T06:58:06;10.77;;;6.37;;
3433;SDS011;1730;41.932;25.548;2023-05-10T07:00:31;11.23;;;6.87;;
3433;SDS011;1730;41.932;25.548;2023-05-10T07:02:57;5.93;;;5.40;;
3433;SDS011;1730;41.932;25.548;2023-05-10T07:05:23;8.17;;;5.03;;
3433;SDS011;1730;41.932;25.548;2023-05-10T07:07:49;6.00;;;5.50;;
3433;SDS011;1730;41.932;25.548;2023-05-10T07:10:14;5.60;;;4.87;;
3433;SDS011;1730;41.932;25.548;2023-05-10T07:12:40;5.80;;;5.20;;
3433;SDS011;1730;41.932;25.548;2023-05-10T07:15:06;4.27;;;3.87;;
3433;SDS011;1730;41.932;25.548;2023-05-10T07:17:32;4.33;;;4.00;;
3433;SDS011;1730;41.932;25.548;2023-05-10T07:19:58;8.67;;;4.70;;
3433;SDS011;1730;41.932;25.548;2023-05-10T07:22:25;5.37;;;4.43;;
3433;SDS011;1730;41.932;25.548;2023-05-10T07:24:50;10.40;;;5.27;;
3433;SDS011;1730;41.932;25.548;2023-05-10T07:27:16;11.27;;;10.00;;
3433;SDS011;1730;41.932;25.548;2023-05-10T07:29:41;5.13;;;4.27;;
3433;SDS011;1730;41.932;25.548;2023-05-10T07:32:07;5.23;;;4.67;;
3433;SDS011;1730;41.932;25.548;2023-05-10T07:34:32;8.23;;;4.40;;
3433;SDS011;1730;41.932;25.548;2023-05-10T07:36:58;6.27;;;4.87;;
3433;SDS011;1730;41.932;25.548;2023-05-10T07:39:24;4.47;;;4.07;;
3433;SDS011;1730;41.932;25.548;2023-05-10T07:41:51;8.00;;;4.13;;
3433;SDS011;1730;41.932;25.548;2023-05-10T07:44:16;6.30;;;5.23;;
3433;SDS011;1730;41.932;25.548;2023-05-10T07:46:44;7.63;;;4.53;;
3433;SDS011;1730;41.932;25.548;2023-05-10T07:49:09;6.13;;;5.50;;
3433;SDS011;1730;41.932;25.548;2023-05-10T07:51:35;5.87;;;4.27;;
3433;SDS011;1730;41.932;25.548;2023-05-10T07:54:01;14.13;;;5.83;;
3433;SDS011;1730;41.932;25.548;2023-05-10T07:56:28;7.20;;;5.67;;
3433;SDS011;1730;41.932;25.548;2023-05-10T07:58:58;7.20;;;4.70;;
3433;SDS011;1730;41.932;25.548;2023-05-10T08:01:24;7.73;;;5.00;;
3433;SDS011;1730;41.932;25.548;2023-05-10T08:03:50;7.40;;;4.40;;
3433;SDS011;1730;41.932;25.548;2023-05-10T08:06:19;6.80;;;5.07;;
3433;SDS011;1730;41.932;25.548;2023-05-10T08:08:46;7.27;;;4.90;;
3433;SDS011;1730;41.932;25.548;2023-05-10T08:11:17;5.40;;;5.00;;
3433;SDS011;1730;41.932;25.548;2023-05-10T08:13:46;6.13;;;5.53;;
3433;SDS011;1730;41.932;25.548;2023-05-10T08:16:13;6.63;;;5.40;;
3433;SDS011;1730;41.932;25.548;2023-05-10T08:18:39;4.33;;;4.03;;
3433;SDS011;1730;41.932;25.548;2023-05-10T08:21:05;5.23;;;4.77;;
3433;SDS011;1730;41.932;25.548;2023-05-10T08:23:31;7.20;;;5.50;;
3433;SDS011;1730;41.932;25.548;2023-05-10T08:25:57;6.20;;;5.60;;
3433;SDS011;1730;41.932;25.548;2023-05-10T08:28:22;4.57;;;4.27;;
3433;SDS011;1730;41.932;25.548;2023-05-10T08:30:49;5.40;;;4.90;;
3433;SDS011;1730;41.932;25.548;2023-05-10T08:33:15;5.53;;;4.00;;
3433;SDS011;1730;41.932;25.548;2023-05-10T08:35:40;5.40;;;3.90;;
3433;SDS011;1730;41.932;25.548;2023-05-10T08:38:06;5.90;;;4.77;;
3433;SDS011;1730;41.932;25.548;2023-05-10T08:40:33;5.60;;;5.00;;
3433;SDS011;1730;41.932;25.548;2023-05-10T08:43:07;7.73;;;5.47;;
3433;SDS011;1730;41.932;25.548;2023-05-10T08:45:38;6.53;;;5.37;;
3433;SDS011;1730;41.932;25.548;2023-05-10T08:48:05;6.20;;;4.80;;
3433;SDS011;1730;41.932;25.548;2023-05-10T08:50:38;6.20;;;5.53;;
3433;SDS011;1730;41.932;25.548;2023-05-10T08:53:13;3.90;;;3.70;;
3433;SDS011;1730;41.932;25.548;2023-05-10T08:55:40;4.33;;;3.70;;
3433;SDS011;1730;41.932;25.548;2023-05-10T08:58:07;6.50;;;4.00;;
3433;SDS011;1730;41.932;25.548;2023-05-10T09:00:35;8.77;;;4.17;;
3433;SDS011;1730;41.932;25.548;2023-05-10T09:03:04;5.93;;;4.80;;
3433;SDS011;1730;41.932;25.548;2023-05-10T09:05:31;8.33;;;4.90;;
3433;SDS011;1730;41.932;25.548;2023-05-10T09:07:57;4.43;;;4.10;;
3433;SDS011;1730;41.932;25.548;2023-05-10T09:10:23;4.83;;;4.40;;
3433;SDS011;1730;41.932;25.548;2023-05-10T09:12:52;4.43;;;4.13;;
3433;SDS011;1730;41.932;25.548;2023-05-10T09:15:20;6.00;;;4.57;;
3433;SDS011;1730;41.932;25.548;2023-05-10T09:17:46;5.03;;;4.40;;
3433;SDS011;1730;41.932;25.548;2023-05-10T09:20:13;4.57;;;4.27;;
3433;SDS011;1730;41.932;25.548;2023-05-10T09:22:38;4.47;;;4.07;;
3433;SDS011;1730;41.932;25.548;2023-05-10T09:27:31;6.43;;;4.17;;
3433;SDS011;1730;41.932;25.548;2023-05-10T09:29:56;4.50;;;4.10;;
3433;SDS011;1730;41.932;25.548;2023-05-10T09:32:27;7.57;;;4.90;;
3433;SDS011;1730;41.932;25.548;2023-05-10T09:35:11;5.00;;;3.97;;
3433;SDS011;1730;41.932;25.548;2023-05-10T09:37:40;4.10;;;3.63;;
3433;SDS011;1730;41.932;25.548;2023-05-10T09:40:12;4.23;;;3.10;;
3433;SDS011;1730;41.932;25.548;2023-05-10T09:42:39;7.13;;;4.20;;
3433;SDS011;1730;41.932;25.548;2023-05-10T09:45:07;5.03;;;4.20;;
3433;SDS011;1730;41.932;25.548;2023-05-10T09:47:36;3.57;;;3.27;;
3433;SDS011;1730;41.932;25.548;2023-05-10T09:50:03;3.70;;;3.40;;
3433;SDS011;1730;41.932;25.548;2023-05-10T09:52:31;7.30;;;3.70;;
3433;SDS011;1730;41.932;25.548;2023-05-10T09:55:12;6.00;;;4.67;;
3433;SDS011;1730;41.932;25.548;2023-05-10T09:57:38;4.97;;;4.47;;
3433;SDS011;1730;41.932;25.548;2023-05-10T10:00:04;5.63;;;3.87;;
3433;SDS011;1730;41.932;25.548;2023-05-10T10:02:31;4.40;;;3.77;;
3433;SDS011;1730;41.932;25.548;2023-05-10T10:04:57;6.80;;;3.17;;
3433;SDS011;1730;41.932;25.548;2023-05-10T10:07:25;3.53;;;3.30;;
3433;SDS011;1730;41.932;25.548;2023-05-10T10:09:51;6.00;;;3.40;;
3433;SDS011;1730;41.932;25.548;2023-05-10T10:12:18;3.43;;;3.13;;
3433;SDS011;1730;41.932;25.548;2023-05-10T10:14:46;2.87;;;2.67;;
3433;SDS011;1730;41.932;25.548;2023-05-10T10:17:13;6.50;;;3.27;;
3433;SDS011;1730;41.932;25.548;2023-05-10T10:19:38;4.00;;;3.70;;
3433;SDS011;1730;41.932;25.548;2023-05-10T10:22:05;4.13;;;3.33;;
3433;SDS011;1730;41.932;25.548;2023-05-10T10:24:31;3.90;;;3.50;;
3433;SDS011;1730;41.932;25.548;2023-05-10T10:26:58;5.60;;;3.47;;
3433;SDS011;1730;41.932;25.548;2023-05-10T10:35:14;3.27;;;3.07;;
3433;SDS011;1730;41.932;25.548;2023-05-10T10:37:42;3.37;;;3.07;;
3433;SDS011;1730;41.932;25.548;2023-05-10T10:40:22;3.20;;;2.97;;
3433;SDS011;1730;41.932;25.548;2023-05-10T10:42:51;6.20;;;4.33;;
3433;SDS011;1730;41.932;25.548;2023-05-10T10:45:17;3.70;;;3.40;;
3433;SDS011;1730;41.932;25.548;2023-05-10T10:47:43;4.43;;;3.10;;
3433;SDS011;1730;41.932;25.548;2023-05-10T10:50:10;10.10;;;3.70;;
3433;SDS011;1730;41.932;25.548;2023-05-10T10:52:44;5.40;;;3.63;;
3433;SDS011;1730;41.932;25.548;2023-05-10T10:57:44;4.10;;;3.80;;
3433;SDS011;1730;41.932;25.548;2023-05-10T11:05:24;4.50;;;3.60;;
3433;SDS011;1730;41.932;25.548;2023-05-10T11:10:48;4.57;;;4.13;;
3433;SDS011;1730;41.932;25.548;2023-05-10T11:13:17;3.53;;;3.33;;
3433;SDS011;1730;41.932;25.548;2023-05-10T11:15:56;3.67;;;3.47;;
3433;SDS011;1730;41.932;25.548;2023-05-10T11:18:29;4.60;;;3.30;;
3433;SDS011;1730;41.932;25.548;2023-05-10T11:20:59;3.60;;;3.37;;
3433;SDS011;1730;41.932;25.548;2023-05-10T11:23:33;9.33;;;3.63;;
3433;SDS011;1730;41.932;25.548;2023-05-10T11:26:13;3.87;;;3.50;;
3433;SDS011;1730;41.932;25.548;2023-05-10T11:28:46;5.07;;;3.67;;
3433;SDS011;1730;41.932;25.548;2023-05-10T11:31:13;3.90;;;3.37;;
3433;SDS011;1730;41.932;25.548;2023-05-10T11:33:58;3.93;;;3.70;;
3433;SDS011;1730;41.932;25.548;2023-05-10T11:36:27;3.97;;;3.67;;
3433;SDS011;1730;41.932;25.548;2023-05-10T11:38:54;3.60;;;3.40;;
3433;SDS011;1730;41.932;25.548;2023-05-10T11:41:22;5.00;;;3.73;;
3433;SDS011;1730;41.932;25.548;2023-05-10T11:43:51;4.03;;;3.73;;
3433;SDS011;1730;41.932;25.548;2023-05-10T11:46:19;6.50;;;3.93;;
3433;SDS011;1730;41.932;25.548;2023-05-10T11:48:51;4.87;;;4.40;;
3433;SDS011;1730;41.932;25.548;2023-05-10T11:51:21;5.40;;;4.47;;
3433;SDS011;1730;41.932;25.548;2023-05-10T11:53:48;4.30;;;3.57;;
3433;SDS011;1730;41.932;25.548;2023-05-10T11:56:23;4.00;;;3.27;;
3433;SDS011;1730;41.932;25.548;2023-05-10T11:59:00;4.23;;;3.67;;
3433;SDS011;1730;41.932;25.548;2023-05-10T12:01:27;4.80;;;4.50;;
3433;SDS011;1730;41.932;25.548;2023-05-10T12:03:54;4.80;;;4.50;;
3433;SDS011;1730;41.932;25.548;2023-05-10T12:06:25;4.63;;;4.23;;
3433;SDS011;1730;41.932;25.548;2023-05-10T12:08:59;4.20;;;3.80;;
3433;SDS011;1730;41.932;25.548;2023-05-10T12:11:25;4.93;;;4.23;;
3433;SDS011;1730;41.932;25.548;2023-05-10T12:13:53;16.80;;;10.23;;
3433;SDS011;1730;41.932;25.548;2023-05-10T12:16:20;10.10;;;3.87;;
3433;SDS011;1730;41.932;25.548;2023-05-10T12:18:53;3.13;;;2.77;;
3433;SDS011;1730;41.932;25.548;2023-05-10T12:21:21;3.63;;;3.30;;
3433;SDS011;1730;41.932;25.548;2023-05-10T12:23:49;3.50;;;2.90;;
3433;SDS011;1730;41.932;25.548;2023-05-10T12:26:16;3.23;;;3.03;;
3433;SDS011;1730;41.932;25.548;2023-05-10T12:28:41;4.33;;;3.10;;
3433;SDS011;1730;41.932;25.548;2023-05-10T12:31:07;5.77;;;5.13;;
3433;SDS011;1730;41.932;25.548;2023-05-10T12:33:41;8.77;;;3.40;;
3433;SDS011;1730;41.932;25.548;2023-05-10T12:36:09;9.87;;;4.90;;
3433;SDS011;1730;41.932;25.548;2023-05-10T12:38:36;3.63;;;3.43;;
3433;SDS011;1730;41.932;25.548;2023-05-10T12:41:12;4.10;;;3.10;;
3433;SDS011;1730;41.932;25.548;2023-05-10T12:43:41;4.90;;;4.33;;
3433;SDS011;1730;41.932;25.548;2023-05-10T12:46:13;6.30;;;4.17;;
3433;SDS011;1730;41.932;25.548;2023-05-10T12:48:41;2.93;;;2.73;;
3433;SDS011;1730;41.932;25.548;2023-05-10T12:51:07;3.90;;;3.60;;
3433;SDS011;1730;41.932;25.548;2023-05-10T12:53:42;5.37;;;2.63;;
3433;SDS011;1730;41.932;25.548;2023-05-10T12:56:08;9.63;;;3.67;;
3433;SDS011;1730;41.932;25.548;2023-05-10T12:58:33;3.73;;;3.13;;
3433;SDS011;1730;41.932;25.548;2023-05-10T13:00:59;2.60;;;2.40;;
3433;SDS011;1730;41.932;25.548;2023-05-10T13:03:29;5.40;;;2.90;;
3433;SDS011;1730;41.932;25.548;2023-05-10T13:05:55;3.60;;;3.30;;
3433;SDS011;1730;41.932;25.548;2023-05-10T13:08:21;5.00;;;4.53;;
3433;SDS011;1730;41.932;25.548;2023-05-10T13:10:46;4.07;;;3.77;;
3433;SDS011;1730;41.932;25.548;2023-05-10T13:13:12;3.50;;;2.83;;
3433;SDS011;1730;41.932;25.548;2023-05-10T13:15:37;5.00;;;2.90;;
3433;SDS011;1730;41.932;25.548;2023-05-10T13:18:03;2.83;;;2.50;;
3433;SDS011;1730;41.932;25.548;2023-05-10T13:20:28;3.13;;;2.93;;
3433;SDS011;1730;41.932;25.548;2023-05-10T13:22:54;2.50;;;2.30;;
3433;SDS011;1730;41.932;25.548;2023-05-10T13:25:20;2.93;;;2.73;;
3433;SDS011;1730;41.932;25.548;2023-05-10T13:27:46;3.57;;;2.90;;
3433;SDS011;1730;41.932;25.548;2023-05-10T13:30:13;2.73;;;2.53;;
3433;SDS011;1730;41.932;25.548;2023-05-10T13:32:51;4.47;;;3.13;;
3433;SDS011;1730;41.932;25.548;2023-05-10T13:35:16;5.30;;;4.20;;
3433;SDS011;1730;41.932;25.548;2023-05-10T13:37:42;3.93;;;3.30;;
3433;SDS011;1730;41.932;25.548;2023-05-10T13:40:09;3.70;;;3.40;;
3433;SDS011;1730;41.932;25.548;2023-05-10T13:42:35;4.17;;;3.20;;
3433;SDS011;1730;41.932;25.548;2023-05-10T13:45:00;4.13;;;3.83;;
3433;SDS011;1730;41.932;25.548;2023-05-10T13:47:27;4.27;;;3.97;;
3433;SDS011;1730;41.932;25.548;2023-05-10T13:49:52;7.10;;;2.90;;
3433;SDS011;1730;41.932;25.548;2023-05-10T13:52:18;4.77;;;4.03;;
3433;SDS011;1730;41.932;25.548;2023-05-10T13:54:44;3.00;;;2.80;;
3433;SDS011;1730;41.932;25.548;2023-05-10T13:57:09;3.80;;;2.97;;
3433;SDS011;1730;41.932;25.548;2023-05-10T13:59:37;3.27;;;2.93;;
3433;SDS011;1730;41.932;25.548;2023-05-10T14:02:03;3.47;;;3.20;;
3433;SDS011;1730;41.932;25.548;2023-05-10T14:04:28;3.90;;;3.37;;
3433;SDS011;1730;41.932;25.548;2023-05-10T14:06:54;4.80;;;4.30;;
3433;SDS011;1730;41.932;25.548;2023-05-10T14:09:20;2.87;;;2.67;;
3433;SDS011;1730;41.932;25.548;2023-05-10T14:11:46;2.57;;;2.40;;
3433;SDS011;1730;41.932;25.548;2023-05-10T14:14:12;2.43;;;2.23;;
3433;SDS011;1730;41.932;25.548;2023-05-10T14:16:41;2.53;;;2.33;;
3433;SDS011;1730;41.932;25.548;2023-05-10T14:19:07;5.10;;;2.60;;
3433;SDS011;1730;41.932;25.548;2023-05-10T14:21:33;7.40;;;3.30;;
3433;SDS011;1730;41.932;25.548;2023-05-10T14:23:59;3.33;;;3.13;;
3433;SDS011;1730;41.932;25.548;2023-05-10T14:26:24;4.13;;;3.73;;
3433;SDS011;1730;41.932;25.548;2023-05-10T14:28:51;2.40;;;2.20;;
3433;SDS011;1730;41.932;25.548;2023-05-10T14:31:16;6.53;;;3.00;;
3433;SDS011;1730;41.932;25.548;2023-05-10T14:33:44;3.70;;;3.30;;
3433;SDS011;1730;41.932;25.548;2023-05-10T14:36:10;3.23;;;2.20;;
3433;SDS011;1730;41.932;25.548;2023-05-10T14:38:37;4.10;;;2.87;;
3433;SDS011;1730;41.932;25.548;2023-05-10T14:41:03;2.73;;;2.53;;
3433;SDS011;1730;41.932;25.548;2023-05-10T14:43:28;3.33;;;2.83;;
3433;SDS011;1730;41.932;25.548;2023-05-10T14:45:55;4.77;;;2.73;;
3433;SDS011;1730;41.932;25.548;2023-05-10T14:48:21;3.50;;;2.57;;
3433;SDS011;1730;41.932;25.548;2023-05-10T14:50:49;2.83;;;2.60;;
3433;SDS011;1730;41.932;25.548;2023-05-10T14:56:04;15.53;;;2.80;;
3433;SDS011;1730;41.932;25.548;2023-05-10T14:58:30;2.63;;;2.43;;
3433;SDS011;1730;41.932;25.548;2023-05-10T15:00:56;10.10;;;4.20;;
3433;SDS011;1730;41.932;25.548;2023-05-10T15:03:21;4.77;;;4.37;;
3433;SDS011;1730;41.932;25.548;2023-05-10T15:05:47;5.53;;;3.53;;
3433;SDS011;1730;41.932;25.548;2023-05-10T15:08:13;4.60;;;3.87;;
3433;SDS011;1730;41.932;25.548;2023-05-10T15:10:39;5.40;;;5.00;;
3433;SDS011;1730;41.932;25.548;2023-05-10T15:13:04;3.03;;;2.83;;
3433;SDS011;1730;41.932;25.548;2023-05-10T15:15:31;4.63;;;3.23;;
3433;SDS011;1730;41.932;25.548;2023-05-10T15:17:57;5.87;;;3.47;;
3433;SDS011;1730;41.932;25.548;2023-05-10T15:20:22;5.93;;;4.30;;
3433;SDS011;1730;41.932;25.548;2023-05-10T15:22:48;3.17;;;2.57;;
3433;SDS011;1730;41.932;25.548;2023-05-10T15:25:13;3.50;;;3.20;;
3433;SDS011;1730;41.932;25.548;2023-05-10T15:27:41;3.50;;;3.20;;
3433;SDS011;1730;41.932;25.548;2023-05-10T15:30:08;2.80;;;2.50;;
3433;SDS011;1730;41.932;25.548;2023-05-10T15:35:03;3.47;;;3.20;;
3433;SDS011;1730;41.932;25.548;2023-05-10T15:37:29;3.83;;;3.60;;